sensor_id;sensor_type;location;lat;lon;timestamp;pressure;altitude;pressure_sealevel;temperature
15062;BMP180;7630;50.306;8.566;2023-02-08T00:01:56;99885.00;;;0.60
15062;BMP180;7630;50.306;8.566;2023-02-08T00:05:57;99871.00;;;0.30
15062;BMP180;7630;50.306;8.566;2023-02-08T00:09:58;99874.00;;;-0.10
15062;BMP180;7630;50.306;8.566;2023-02-08T00:13:59;99876.00;;;0.60
15062;BMP180;7630;50.306;8.566;2023-02-08T00:18:00;99864.00;;;0.20
15062;BMP180;7630;50.306;8.566;2023-02-08T00:22:01;99854.00;;;0.10
15062;BMP180;7630;50.306;8.566;2023-02-08T00:26:03;99864.00;;;0.40
15062;BMP180;7630;50.306;8.566;2023-02-08T00:30:05;99867.00;;;0.30
15062;BMP180;7630;50.306;8.566;2023-02-08T00:34:06;99864.00;;;0.30
15062;BMP180;7630;50.306;8.566;2023-02-08T00:38:08;99856.00;;;0.20
15062;BMP180;7630;50.306;8.566;2023-02-08T00:42:09;99856.00;;;-0.50
15062;BMP180;7630;50.306;8.566;2023-02-08T00:46:10;99846.00;;;-0.80
15062;BMP180;7630;50.306;8.566;2023-02-08T00:50:11;99853.00;;;-0.10
15062;BMP180;7630;50.306;8.566;2023-02-08T00:54:19;99848.00;;;-0.10
15062;BMP180;7630;50.306;8.566;2023-02-08T00:58:17;99847.00;;;0.10
15062;BMP180;7630;50.306;8.566;2023-02-08T01:02:18;99846.00;;;-0.20
15062;BMP180;7630;50.306;8.566;2023-02-08T01:06:20;99849.00;;;-0.80
15062;BMP180;7630;50.306;8.566;2023-02-08T01:10:21;99853.00;;;-0.40
15062;BMP180;7630;50.306;8.566;2023-02-08T01:14:22;99848.00;;;0.10
15062;BMP180;7630;50.306;8.566;2023-02-08T01:18:23;99856.00;;;-0.40
15062;BMP180;7630;50.306;8.566;2023-02-08T01:22:24;99843.00;;;0.00
15062;BMP180;7630;50.306;8.566;2023-02-08T01:26:25;99834.00;;;-0.10
15062;BMP180;7630;50.306;8.566;2023-02-08T01:30:27;99847.00;;;-0.60
15062;BMP180;7630;50.306;8.566;2023-02-08T01:34:28;99846.00;;;0.10
15062;BMP180;7630;50.306;8.566;2023-02-08T01:38:30;99834.00;;;0.00
15062;BMP180;7630;50.306;8.566;2023-02-08T01:42:31;99839.00;;;0.10
15062;BMP180;7630;50.306;8.566;2023-02-08T01:46:34;99837.00;;;-0.20
15062;BMP180;7630;50.306;8.566;2023-02-08T01:50:42;99839.00;;;-0.50
15062;BMP180;7630;50.306;8.566;2023-02-08T01:54:50;99826.00;;;-0.30
15062;BMP180;7630;50.306;8.566;2023-02-08T01:58:54;99838.00;;;0.00
15062;BMP180;7630;50.306;8.566;2023-02-08T02:02:57;99832.00;;;-0.20
15062;BMP180;7630;50.306;8.566;2023-02-08T02:07:00;99838.00;;;-0.20
15062;BMP180;7630;50.306;8.566;2023-02-08T02:11:03;99837.00;;;-0.10
15062;BMP180;7630;50.306;8.566;2023-02-08T02:15:05;99846.00;;;-0.40
15062;BMP180;7630;50.306;8.566;2023-02-08T02:19:10;99832.00;;;-0.30
15062;BMP180;7630;50.306;8.566;2023-02-08T02:31:58;99841.00;;;-0.30
15062;BMP180;7630;50.306;8.566;2023-02-08T02:53:41;99826.00;;;-0.60
15062;BMP180;7630;50.306;8.566;2023-02-08T02:57:43;99827.00;;;-0.80
15062;BMP180;7630;50.306;8.566;2023-02-08T03:01:46;99827.00;;;-1.20
15062;BMP180;7630;50.306;8.566;2023-02-08T03:05:49;99824.00;;;-0.90
15062;BMP180;7630;50.306;8.566;2023-02-08T03:19:12;99819.00;;;-1.00
15062;BMP180;7630;50.306;8.566;2023-02-08T03:31:56;99818.00;;;-0.60
15062;BMP180;7630;50.306;8.566;2023-02-08T03:36:07;99819.00;;;-0.80
15062;BMP180;7630;50.306;8.566;2023-02-08T03:40:13;99818.00;;;-0.30
15062;BMP180;7630;50.306;8.566;2023-02-08T03:44:17;99826.00;;;-0.50
15062;BMP180;7630;50.306;8.566;2023-02-08T03:48:19;99825.00;;;-0.70
15062;BMP180;7630;50.306;8.566;2023-02-08T03:52:22;99827.00;;;-0.60
15062;BMP180;7630;50.306;8.566;2023-02-08T03:56:47;99831.00;;;-0.90
15062;BMP180;7630;50.306;8.566;2023-02-08T04:00:48;99826.00;;;-1.20
15062;BMP180;7630;50.306;8.566;2023-02-08T04:04:50;99840.00;;;-0.90
15062;BMP180;7630;50.306;8.566;2023-02-08T04:08:52;99820.00;;;-1.10
15062;BMP180;7630;50.306;8.566;2023-02-08T04:12:53;99822.00;;;-1.00
15062;BMP180;7630;50.306;8.566;2023-02-08T04:16:54;99825.00;;;-1.40
15062;BMP180;7630;50.306;8.566;2023-02-08T04:20:59;99827.00;;;-1.00
15062;BMP180;7630;50.306;8.566;2023-02-08T04:25:00;99832.00;;;-1.10
15062;BMP180;7630;50.306;8.566;2023-02-08T04:29:01;99819.00;;;-1.40
15062;BMP180;7630;50.306;8.566;2023-02-08T04:33:02;99828.00;;;-1.00
15062;BMP180;7630;50.306;8.566;2023-02-08T04:37:04;99822.00;;;-0.90
15062;BMP180;7630;50.306;8.566;2023-02-08T04:41:05;99823.00;;;-1.00
15062;BMP180;7630;50.306;8.566;2023-02-08T04:45:07;99812.00;;;-1.40
15062;BMP180;7630;50.306;8.566;2023-02-08T04:49:08;99803.00;;;-1.30
15062;BMP180;7630;50.306;8.566;2023-02-08T04:53:10;99803.00;;;-1.30
15062;BMP180;7630;50.306;8.566;2023-02-08T04:57:12;99800.00;;;-1.20
15062;BMP180;7630;50.306;8.566;2023-02-08T05:01:14;99810.00;;;-1.70
15062;BMP180;7630;50.306;8.566;2023-02-08T05:05:16;99806.00;;;-1.30
15062;BMP180;7630;50.306;8.566;2023-02-08T05:09:17;99803.00;;;-1.30
15062;BMP180;7630;50.306;8.566;2023-02-08T05:13:18;99796.00;;;-1.70
15062;BMP180;7630;50.306;8.566;2023-02-08T05:17:19;99803.00;;;-1.60
15062;BMP180;7630;50.306;8.566;2023-02-08T05:21:20;99808.00;;;-1.00
15062;BMP180;7630;50.306;8.566;2023-02-08T05:25:23;99797.00;;;-1.30
15062;BMP180;7630;50.306;8.566;2023-02-08T05:29:24;99800.00;;;-1.30
15062;BMP180;7630;50.306;8.566;2023-02-08T05:33:25;99803.00;;;-1.40
15062;BMP180;7630;50.306;8.566;2023-02-08T05:37:27;99809.00;;;-1.60
15062;BMP180;7630;50.306;8.566;2023-02-08T05:41:28;99804.00;;;-1.30
15062;BMP180;7630;50.306;8.566;2023-02-08T05:45:29;99817.00;;;-1.30
15062;BMP180;7630;50.306;8.566;2023-02-08T05:49:30;99810.00;;;-1.40
15062;BMP180;7630;50.306;8.566;2023-02-08T05:53:31;99819.00;;;-1.00
15062;BMP180;7630;50.306;8.566;2023-02-08T05:57:32;99823.00;;;-1.10
15062;BMP180;7630;50.306;8.566;2023-02-08T06:01:35;99825.00;;;-1.70
15062;BMP180;7630;50.306;8.566;2023-02-08T06:05:38;99824.00;;;-1.60
15062;BMP180;7630;50.306;8.566;2023-02-08T06:09:39;99822.00;;;-1.30
15062;BMP180;7630;50.306;8.566;2023-02-08T06:13:41;99832.00;;;-1.50
15062;BMP180;7630;50.306;8.566;2023-02-08T06:17:42;99835.00;;;-1.60
15062;BMP180;7630;50.306;8.566;2023-02-08T06:21:43;99829.00;;;-1.40
15062;BMP180;7630;50.306;8.566;2023-02-08T06:25:44;99833.00;;;-1.50
15062;BMP180;7630;50.306;8.566;2023-02-08T06:29:45;99842.00;;;-1.40
15062;BMP180;7630;50.306;8.566;2023-02-08T06:33:46;99840.00;;;-1.80
15062;BMP180;7630;50.306;8.566;2023-02-08T06:37:47;99839.00;;;-1.50
15062;BMP180;7630;50.306;8.566;2023-02-08T06:41:48;99837.00;;;-1.50
15062;BMP180;7630;50.306;8.566;2023-02-08T06:45:49;99832.00;;;-1.50
15062;BMP180;7630;50.306;8.566;2023-02-08T06:49:51;99845.00;;;-1.50
15062;BMP180;7630;50.306;8.566;2023-02-08T06:53:52;99832.00;;;-1.50
15062;BMP180;7630;50.306;8.566;2023-02-08T06:57:54;99836.00;;;-2.00
15062;BMP180;7630;50.306;8.566;2023-02-08T07:01:55;99826.00;;;-1.90
15062;BMP180;7630;50.306;8.566;2023-02-08T07:05:59;99830.00;;;-1.30
15062;BMP180;7630;50.306;8.566;2023-02-08T07:10:03;99828.00;;;-1.20
15062;BMP180;7630;50.306;8.566;2023-02-08T07:14:04;99834.00;;;-1.40
15062;BMP180;7630;50.306;8.566;2023-02-08T07:18:05;99845.00;;;-1.10
15062;BMP180;7630;50.306;8.566;2023-02-08T07:22:06;99853.00;;;-1.10
15062;BMP180;7630;50.306;8.566;2023-02-08T07:26:09;99837.00;;;-1.00
15062;BMP180;7630;50.306;8.566;2023-02-08T07:30:12;99835.00;;;-1.00
15062;BMP180;7630;50.306;8.566;2023-02-08T07:34:13;99831.00;;;-0.80
15062;BMP180;7630;50.306;8.566;2023-02-08T07:38:16;99836.00;;;-0.60
15062;BMP180;7630;50.306;8.566;2023-02-08T07:42:20;99825.00;;;-0.90
15062;BMP180;7630;50.306;8.566;2023-02-08T07:46:21;99819.00;;;-0.30
15062;BMP180;7630;50.306;8.566;2023-02-08T07:50:22;99820.00;;;0.10
15062;BMP180;7630;50.306;8.566;2023-02-08T07:54:24;99836.00;;;0.60
15062;BMP180;7630;50.306;8.566;2023-02-08T07:58:25;99828.00;;;0.70
15062;BMP180;7630;50.306;8.566;2023-02-08T08:02:27;99834.00;;;0.40
15062;BMP180;7630;50.306;8.566;2023-02-08T08:06:28;99828.00;;;1.10
15062;BMP180;7630;50.306;8.566;2023-02-08T08:10:29;99838.00;;;1.30
15062;BMP180;7630;50.306;8.566;2023-02-08T08:14:31;99827.00;;;1.50
15062;BMP180;7630;50.306;8.566;2023-02-08T08:18:32;99835.00;;;1.70
15062;BMP180;7630;50.306;8.566;2023-02-08T08:22:33;99836.00;;;1.30
15062;BMP180;7630;50.306;8.566;2023-02-08T08:26:34;99831.00;;;1.40
15062;BMP180;7630;50.306;8.566;2023-02-08T08:30:35;99832.00;;;1.80
15062;BMP180;7630;50.306;8.566;2023-02-08T08:34:36;99823.00;;;2.00
15062;BMP180;7630;50.306;8.566;2023-02-08T08:38:38;99826.00;;;2.00
15062;BMP180;7630;50.306;8.566;2023-02-08T08:42:40;99826.00;;;2.20
15062;BMP180;7630;50.306;8.566;2023-02-08T08:46:41;99826.00;;;2.50
15062;BMP180;7630;50.306;8.566;2023-02-08T08:50:42;99825.00;;;2.60
15062;BMP180;7630;50.306;8.566;2023-02-08T08:54:43;99826.00;;;2.80
15062;BMP180;7630;50.306;8.566;2023-02-08T08:58:44;99824.00;;;3.10
15062;BMP180;7630;50.306;8.566;2023-02-08T09:02:45;99818.00;;;3.10
15062;BMP180;7630;50.306;8.566;2023-02-08T09:06:51;99825.00;;;2.80
15062;BMP180;7630;50.306;8.566;2023-02-08T09:10:50;99820.00;;;3.40
15062;BMP180;7630;50.306;8.566;2023-02-08T09:14:50;99821.00;;;3.90
15062;BMP180;7630;50.306;8.566;2023-02-08T09:18:52;99808.00;;;3.70
15062;BMP180;7630;50.306;8.566;2023-02-08T09:22:53;99817.00;;;3.90
15062;BMP180;7630;50.306;8.566;2023-02-08T09:26:54;99806.00;;;3.90
15062;BMP180;7630;50.306;8.566;2023-02-08T09:30:55;99807.00;;;3.70
15062;BMP180;7630;50.306;8.566;2023-02-08T09:34:57;99807.00;;;4.50
15062;BMP180;7630;50.306;8.566;2023-02-08T09:39:33;99809.00;;;4.10
15062;BMP180;7630;50.306;8.566;2023-02-08T09:43:12;99808.00;;;3.90
15062;BMP180;7630;50.306;8.566;2023-02-08T09:47:20;99809.00;;;4.80
15062;BMP180;7630;50.306;8.566;2023-02-08T09:51:34;99812.00;;;5.00
15062;BMP180;7630;50.306;8.566;2023-02-08T09:59:37;99823.00;;;4.60
15062;BMP180;7630;50.306;8.566;2023-02-08T10:03:42;99829.00;;;4.90
15062;BMP180;7630;50.306;8.566;2023-02-08T10:07:45;99822.00;;;4.60
15062;BMP180;7630;50.306;8.566;2023-02-08T10:12:00;99824.00;;;5.50
15062;BMP180;7630;50.306;8.566;2023-02-08T10:16:10;99821.00;;;3.80
15062;BMP180;7630;50.306;8.566;2023-02-08T10:24:46;99821.00;;;3.90
15062;BMP180;7630;50.306;8.566;2023-02-08T10:33:21;99820.00;;;5.10
15062;BMP180;7630;50.306;8.566;2023-02-08T10:37:31;99799.00;;;4.30
15062;BMP180;7630;50.306;8.566;2023-02-08T10:41:37;99796.00;;;5.50
15062;BMP180;7630;50.306;8.566;2023-02-08T10:54:11;99789.00;;;5.40
15062;BMP180;7630;50.306;8.566;2023-02-08T10:58:21;99793.00;;;4.40
15062;BMP180;7630;50.306;8.566;2023-02-08T11:02:29;99782.00;;;3.80
15062;BMP180;7630;50.306;8.566;2023-02-08T11:06:28;99783.00;;;4.20
15062;BMP180;7630;50.306;8.566;2023-02-08T11:10:30;99777.00;;;3.70
15062;BMP180;7630;50.306;8.566;2023-02-08T11:14:37;99769.00;;;3.40
15062;BMP180;7630;50.306;8.566;2023-02-08T11:18:46;99771.00;;;3.80
15062;BMP180;7630;50.306;8.566;2023-02-08T11:22:48;99760.00;;;3.20
15062;BMP180;7630;50.306;8.566;2023-02-08T11:26:49;99764.00;;;3.50
15062;BMP180;7630;50.306;8.566;2023-02-08T11:30:55;99757.00;;;3.10
15062;BMP180;7630;50.306;8.566;2023-02-08T11:35:03;99750.00;;;4.00
15062;BMP180;7630;50.306;8.566;2023-02-08T11:39:16;99752.00;;;5.80
15062;BMP180;7630;50.306;8.566;2023-02-08T11:43:23;99749.00;;;4.50
15062;BMP180;7630;50.306;8.566;2023-02-08T11:47:27;99755.00;;;5.60
15062;BMP180;7630;50.306;8.566;2023-02-08T11:55:34;99741.00;;;5.90
15062;BMP180;7630;50.306;8.566;2023-02-08T11:59:35;99742.00;;;5.30
15062;BMP180;7630;50.306;8.566;2023-02-08T12:03:38;99749.00;;;6.20
15062;BMP180;7630;50.306;8.566;2023-02-08T12:08:03;99741.00;;;6.00
15062;BMP180;7630;50.306;8.566;2023-02-08T12:12:16;99736.00;;;4.80
15062;BMP180;7630;50.306;8.566;2023-02-08T12:16:22;99740.00;;;5.20
15062;BMP180;7630;50.306;8.566;2023-02-08T12:24:39;99733.00;;;7.30
15062;BMP180;7630;50.306;8.566;2023-02-08T12:29:03;99724.00;;;6.60
15062;BMP180;7630;50.306;8.566;2023-02-08T12:42:02;99717.00;;;5.00
15062;BMP180;7630;50.306;8.566;2023-02-08T12:46:10;99698.00;;;5.00
15062;BMP180;7630;50.306;8.566;2023-02-08T12:54:38;99688.00;;;6.10
15062;BMP180;7630;50.306;8.566;2023-02-08T12:58:44;99703.00;;;6.50
15062;BMP180;7630;50.306;8.566;2023-02-08T13:03:13;99701.00;;;6.60
15062;BMP180;7630;50.306;8.566;2023-02-08T13:07:20;99690.00;;;6.10
15062;BMP180;7630;50.306;8.566;2023-02-08T13:11:39;99686.00;;;6.20
15062;BMP180;7630;50.306;8.566;2023-02-08T13:16:44;99679.00;;;6.20
15062;BMP180;7630;50.306;8.566;2023-02-08T13:20:19;99668.00;;;5.70
15062;BMP180;7630;50.306;8.566;2023-02-08T13:28:24;99652.00;;;6.70
15062;BMP180;7630;50.306;8.566;2023-02-08T13:36:38;99647.00;;;6.50
15062;BMP180;7630;50.306;8.566;2023-02-08T13:40:41;99644.00;;;8.00
15062;BMP180;7630;50.306;8.566;2023-02-08T13:44:48;99636.00;;;6.70
15062;BMP180;7630;50.306;8.566;2023-02-08T13:48:51;99629.00;;;7.20
15062;BMP180;7630;50.306;8.566;2023-02-08T13:52:53;99631.00;;;7.20
15062;BMP180;7630;50.306;8.566;2023-02-08T13:56:54;99631.00;;;7.10
15062;BMP180;7630;50.306;8.566;2023-02-08T14:14:26;99622.00;;;7.00
15062;BMP180;7630;50.306;8.566;2023-02-08T14:18:29;99625.00;;;5.80
15062;BMP180;7630;50.306;8.566;2023-02-08T14:22:34;99630.00;;;6.60
15062;BMP180;7630;50.306;8.566;2023-02-08T14:26:35;99619.00;;;6.30
15062;BMP180;7630;50.306;8.566;2023-02-08T14:30:38;99622.00;;;6.50
15062;BMP180;7630;50.306;8.566;2023-02-08T14:34:40;99609.00;;;5.50
15062;BMP180;7630;50.306;8.566;2023-02-08T14:51:31;99592.00;;;6.10
15062;BMP180;7630;50.306;8.566;2023-02-08T14:55:43;99594.00;;;6.50
15062;BMP180;7630;50.306;8.566;2023-02-08T14:59:44;99591.00;;;7.80
15062;BMP180;7630;50.306;8.566;2023-02-08T15:03:48;99591.00;;;5.90
15062;BMP180;7630;50.306;8.566;2023-02-08T15:07:53;99586.00;;;6.20
15062;BMP180;7630;50.306;8.566;2023-02-08T15:16:09;99573.00;;;7.10
15062;BMP180;7630;50.306;8.566;2023-02-08T15:20:19;99567.00;;;5.80
15062;BMP180;7630;50.306;8.566;2023-02-08T15:24:23;99568.00;;;6.50
15062;BMP180;7630;50.306;8.566;2023-02-08T15:28:28;99566.00;;;4.30
15062;BMP180;7630;50.306;8.566;2023-02-08T15:32:30;99567.00;;;4.20
15062;BMP180;7630;50.306;8.566;2023-02-08T15:36:35;99569.00;;;4.20
15062;BMP180;7630;50.306;8.566;2023-02-08T15:40:36;99565.00;;;4.20
15062;BMP180;7630;50.306;8.566;2023-02-08T15:44:40;99552.00;;;4.50
15062;BMP180;7630;50.306;8.566;2023-02-08T15:48:44;99548.00;;;4.90
15062;BMP180;7630;50.306;8.566;2023-02-08T15:52:46;99551.00;;;4.40
15062;BMP180;7630;50.306;8.566;2023-02-08T15:57:07;99540.00;;;4.50
15062;BMP180;7630;50.306;8.566;2023-02-08T16:01:06;99541.00;;;4.50
15062;BMP180;7630;50.306;8.566;2023-02-08T16:05:19;99537.00;;;4.20
15062;BMP180;7630;50.306;8.566;2023-02-08T16:09:23;99531.00;;;4.50
15062;BMP180;7630;50.306;8.566;2023-02-08T16:13:33;99565.00;;;4.60
15062;BMP180;7630;50.306;8.566;2023-02-08T16:17:44;99531.00;;;5.00
15062;BMP180;7630;50.306;8.566;2023-02-08T16:21:45;99529.00;;;5.20
15062;BMP180;7630;50.306;8.566;2023-02-08T16:25:46;99532.00;;;4.90
15062;BMP180;7630;50.306;8.566;2023-02-08T16:29:50;99519.00;;;4.70
15062;BMP180;7630;50.306;8.566;2023-02-08T16:33:59;99518.00;;;5.10
15062;BMP180;7630;50.306;8.566;2023-02-08T16:38:01;99527.00;;;5.70
15062;BMP180;7630;50.306;8.566;2023-02-08T16:42:22;99525.00;;;6.10
15062;BMP180;7630;50.306;8.566;2023-02-08T16:46:23;99520.00;;;5.80
15062;BMP180;7630;50.306;8.566;2023-02-08T16:50:26;99522.00;;;5.00
15062;BMP180;7630;50.306;8.566;2023-02-08T16:54:28;99527.00;;;5.30
15062;BMP180;7630;50.306;8.566;2023-02-08T16:58:29;99527.00;;;5.50
15062;BMP180;7630;50.306;8.566;2023-02-08T17:02:30;99533.00;;;4.70
15062;BMP180;7630;50.306;8.566;2023-02-08T17:06:33;99517.00;;;5.00
15062;BMP180;7630;50.306;8.566;2023-02-08T17:10:35;99520.00;;;4.90
15062;BMP180;7630;50.306;8.566;2023-02-08T17:14:37;99525.00;;;4.50
15062;BMP180;7630;50.306;8.566;2023-02-08T17:18:39;99521.00;;;4.50
15062;BMP180;7630;50.306;8.566;2023-02-08T17:22:40;99527.00;;;4.50
15062;BMP180;7630;50.306;8.566;2023-02-08T17:26:42;99522.00;;;4.10
15062;BMP180;7630;50.306;8.566;2023-02-08T17:30:44;99528.00;;;3.90
15062;BMP180;7630;50.306;8.566;2023-02-08T17:34:46;99510.00;;;3.90
15062;BMP180;7630;50.306;8.566;2023-02-08T17:38:47;99532.00;;;3.80
15062;BMP180;7630;50.306;8.566;2023-02-08T17:42:50;99525.00;;;3.30
15062;BMP180;7630;50.306;8.566;2023-02-08T17:46:52;99522.00;;;3.60
15062;BMP180;7630;50.306;8.566;2023-02-08T17:50:53;99526.00;;;3.50
15062;BMP180;7630;50.306;8.566;2023-02-08T17:54:54;99514.00;;;3.50
15062;BMP180;7630;50.306;8.566;2023-02-08T17:58:55;99524.00;;;3.40
15062;BMP180;7630;50.306;8.566;2023-02-08T18:02:56;99508.00;;;3.30
15062;BMP180;7630;50.306;8.566;2023-02-08T18:06:59;99506.00;;;3.20
15062;BMP180;7630;50.306;8.566;2023-02-08T18:11:04;99509.00;;;3.20
15062;BMP180;7630;50.306;8.566;2023-02-08T18:15:08;99506.00;;;3.10
15062;BMP180;7630;50.306;8.566;2023-02-08T18:19:10;99504.00;;;3.00
15062;BMP180;7630;50.306;8.566;2023-02-08T18:23:11;99501.00;;;2.80
15062;BMP180;7630;50.306;8.566;2023-02-08T18:27:13;99509.00;;;1.60
15062;BMP180;7630;50.306;8.566;2023-02-08T18:31:16;99500.00;;;1.90
15062;BMP180;7630;50.306;8.566;2023-02-08T18:35:19;99498.00;;;2.50
15062;BMP180;7630;50.306;8.566;2023-02-08T18:39:20;99489.00;;;2.40
15062;BMP180;7630;50.306;8.566;2023-02-08T18:43:23;99502.00;;;2.70
15062;BMP180;7630;50.306;8.566;2023-02-08T18:47:25;99493.00;;;3.10
15062;BMP180;7630;50.306;8.566;2023-02-08T18:51:26;99501.00;;;2.80
15062;BMP180;7630;50.306;8.566;2023-02-08T18:55:28;99496.00;;;2.30
15062;BMP180;7630;50.306;8.566;2023-02-08T18:59:29;99499.00;;;2.60
15062;BMP180;7630;50.306;8.566;2023-02-08T19:03:30;99503.00;;;2.80
15062;BMP180;7630;50.306;8.566;2023-02-08T19:07:33;99507.00;;;3.10
15062;BMP180;7630;50.306;8.566;2023-02-08T19:11:36;99500.00;;;3.00
15062;BMP180;7630;50.306;8.566;2023-02-08T19:15:39;99503.00;;;3.70
15062;BMP180;7630;50.306;8.566;2023-02-08T19:19:40;99509.00;;;4.10
15062;BMP180;7630;50.306;8.566;2023-02-08T19:23:47;99506.00;;;3.90
15062;BMP180;7630;50.306;8.566;2023-02-08T19:27:49;99499.00;;;3.30
15062;BMP180;7630;50.306;8.566;2023-02-08T19:31:51;99499.00;;;2.90
15062;BMP180;7630;50.306;8.566;2023-02-08T19:35:52;99494.00;;;3.00
15062;BMP180;7630;50.306;8.566;2023-02-08T19:39:53;99492.00;;;2.30
15062;BMP180;7630;50.306;8.566;2023-02-08T19:43:54;99495.00;;;2.40
15062;BMP180;7630;50.306;8.566;2023-02-08T19:47:55;99494.00;;;1.90
15062;BMP180;7630;50.306;8.566;2023-02-08T19:51:57;99494.00;;;1.70
15062;BMP180;7630;50.306;8.566;2023-02-08T19:56:03;99486.00;;;2.00
15062;BMP180;7630;50.306;8.566;2023-02-08T20:00:05;99481.00;;;2.20
15062;BMP180;7630;50.306;8.566;2023-02-08T20:04:08;99474.00;;;1.90
15062;BMP180;7630;50.306;8.566;2023-02-08T20:08:10;99473.00;;;1.50
15062;BMP180;7630;50.306;8.566;2023-02-08T20:12:11;99462.00;;;1.50
15062;BMP180;7630;50.306;8.566;2023-02-08T20:16:12;99456.00;;;2.20
15062;BMP180;7630;50.306;8.566;2023-02-08T20:20:13;99466.00;;;2.00
15062;BMP180;7630;50.306;8.566;2023-02-08T20:24:15;99464.00;;;2.30
15062;BMP180;7630;50.306;8.566;2023-02-08T20:28:16;99462.00;;;2.40
15062;BMP180;7630;50.306;8.566;2023-02-08T20:32:17;99465.00;;;2.80
15062;BMP180;7630;50.306;8.566;2023-02-08T20:36:21;99482.00;;;3.00
15062;BMP180;7630;50.306;8.566;2023-02-08T20:40:23;99463.00;;;1.90
15062;BMP180;7630;50.306;8.566;2023-02-08T20:44:24;99461.00;;;1.40
15062;BMP180;7630;50.306;8.566;2023-02-08T20:48:25;99458.00;;;1.60
15062;BMP180;7630;50.306;8.566;2023-02-08T20:52:26;99460.00;;;1.70
15062;BMP180;7630;50.306;8.566;2023-02-08T20:56:33;99461.00;;;1.70
15062;BMP180;7630;50.306;8.566;2023-02-08T21:00:34;99463.00;;;1.60
15062;BMP180;7630;50.306;8.566;2023-02-08T21:04:37;99452.00;;;2.30
15062;BMP180;7630;50.306;8.566;2023-02-08T21:08:38;99452.00;;;3.10
15062;BMP180;7630;50.306;8.566;2023-02-08T21:12:40;99452.00;;;3.60
15062;BMP180;7630;50.306;8.566;2023-02-08T21:16:41;99450.00;;;3.30
15062;BMP180;7630;50.306;8.566;2023-02-08T21:20:42;99453.00;;;3.50
15062;BMP180;7630;50.306;8.566;2023-02-08T21:24:44;99449.00;;;3.00
15062;BMP180;7630;50.306;8.566;2023-02-08T21:28:45;99474.00;;;2.80
15062;BMP180;7630;50.306;8.566;2023-02-08T21:32:47;99436.00;;;2.50
15062;BMP180;7630;50.306;8.566;2023-02-08T21:36:48;99430.00;;;3.00
15062;BMP180;7630;50.306;8.566;2023-02-08T21:40:49;99417.00;;;2.80
15062;BMP180;7630;50.306;8.566;2023-02-08T21:44:50;99421.00;;;2.70
15062;BMP180;7630;50.306;8.566;2023-02-08T21:48:52;99407.00;;;2.50
15062;BMP180;7630;50.306;8.566;2023-02-08T21:53:12;99402.00;;;2.30
15062;BMP180;7630;50.306;8.566;2023-02-08T21:57:34;99393.00;;;2.40
15062;BMP180;7630;50.306;8.566;2023-02-08T22:01:37;99397.00;;;1.40
15062;BMP180;7630;50.306;8.566;2023-02-08T22:05:38;99386.00;;;1.10
15062;BMP180;7630;50.306;8.566;2023-02-08T22:09:58;99391.00;;;0.70
15062;BMP180;7630;50.306;8.566;2023-02-08T22:13:59;99393.00;;;1.60
15062;BMP180;7630;50.306;8.566;2023-02-08T22:18:01;99400.00;;;1.50
15062;BMP180;7630;50.306;8.566;2023-02-08T22:22:03;99399.00;;;1.80
15062;BMP180;7630;50.306;8.566;2023-02-08T22:26:07;99400.00;;;1.40
15062;BMP180;7630;50.306;8.566;2023-02-08T22:30:12;99406.00;;;1.60
15062;BMP180;7630;50.306;8.566;2023-02-08T22:34:13;99389.00;;;1.50
15062;BMP180;7630;50.306;8.566;2023-02-08T22:38:14;99386.00;;;1.50
15062;BMP180;7630;50.306;8.566;2023-02-08T22:42:15;99383.00;;;1.60
15062;BMP180;7630;50.306;8.566;2023-02-08T22:46:17;99367.00;;;1.30
15062;BMP180;7630;50.306;8.566;2023-02-08T22:50:18;99377.00;;;1.80
15062;BMP180;7630;50.306;8.566;2023-02-08T22:54:19;99363.00;;;1.40
15062;BMP180;7630;50.306;8.566;2023-02-08T22:58:20;99374.00;;;0.90
15062;BMP180;7630;50.306;8.566;2023-02-08T23:02:22;99196.00;;;1.70
15062;BMP180;7630;50.306;8.566;2023-02-08T23:06:24;99390.00;;;1.80
15062;BMP180;7630;50.306;8.566;2023-02-08T23:10:25;99383.00;;;1.00
15062;BMP180;7630;50.306;8.566;2023-02-08T23:14:26;99376.00;;;1.50
15062;BMP180;7630;50.306;8.566;2023-02-08T23:18:27;99373.00;;;1.20
15062;BMP180;7630;50.306;8.566;2023-02-08T23:22:28;99379.00;;;1.30
15062;BMP180;7630;50.306;8.566;2023-02-08T23:26:29;99379.00;;;1.20
15062;BMP180;7630;50.306;8.566;2023-02-08T23:30:30;99394.00;;;1.10
15062;BMP180;7630;50.306;8.566;2023-02-08T23:34:33;99405.00;;;1.70
15062;BMP180;7630;50.306;8.566;2023-02-08T23:38:34;99395.00;;;0.90
15062;BMP180;7630;50.306;8.566;2023-02-08T23:42:35;99395.00;;;0.50
15062;BMP180;7630;50.306;8.566;2023-02-08T23:46:37;99398.00;;;1.00
15062;BMP180;7630;50.306;8.566;2023-02-08T23:50:38;99389.00;;;1.90
15062;BMP180;7630;50.306;8.566;2023-02-08T23:54:40;99399.00;;;1.30
15062;BMP180;7630;50.306;8.566;2023-02-08T23:58:43;99396.00;;;2.00
